Time;durP1;ratioP1;P1;durP2;ratioP2;P2;SDS_P1;SDS_P2;PMS_P1;PMS_P2;Temp;Humidity;BMP_temperature;BMP_pressure;BME280_temperature;BME280_humidity;BME280_pressure;Samples;Min_cycle;Max_cycle;Signal;HPM_P1;HPM_P2
2022/10/01 00:02:01;;;;;;;7.88;5.05;;;;;;;12.37;81.11;100041.66;3575887;40;20301;-63
2022/10/01 00:04:27;;;;;;;5.50;4.95;;;;;;;12.36;81.08;100039.97;3574923;40;20288;-62
2022/10/01 00:06:53;;;;;;;6.80;4.63;;;;;;;12.36;80.85;100024.66;3576089;40;20133;-63
2022/10/01 00:09:18;;;;;;;6.00;4.90;;;;;;;12.36;80.80;100045.34;3582446;40;20044;-61
2022/10/01 00:11:44;;;;;;;5.15;4.68;;;;;;;12.32;81.19;100033.97;3579166;40;20397;-61
2022/10/01 00:14:10;;;;;;;6.57;4.60;;;;;;;12.31;81.46;100027.75;3577251;40;20064;-61
2022/10/01 00:16:35;;;;;;;9.57;5.10;;;;;;;11.82;81.60;99934.72;3580695;40;20044;-62
2022/10/01 00:19:01;;;;;;;6.32;4.85;;;;;;;12.23;82.08;100007.78;3581738;40;20072;-61
2022/10/01 00:21:30;;;;;;;5.80;5.20;;;;;;;12.27;81.83;99999.34;3576552;39;20058;-61
2022/10/01 00:24:03;;;;;;;7.65;4.93;;;;;;;12.26;81.66;99997.59;3577846;40;20052;-61
2022/10/01 00:26:33;;;;;;;5.70;5.10;;;;;;;12.30;81.49;100009.88;3578031;39;20375;-61
2022/10/01 00:29:06;;;;;;;6.28;4.85;;;;;;;12.26;81.03;100013.78;3579004;40;20525;-61
2022/10/01 00:31:32;;;;;;;6.68;5.00;;;;;;;12.25;81.75;100000.44;3579926;40;20363;-61
2022/10/01 00:34:02;;;;;;;6.53;5.05;;;;;;;12.16;81.49;99987.72;3580814;39;20062;-61
2022/10/01 00:36:28;;;;;;;5.55;5.03;;;;;;;11.74;81.33;99923.72;3580708;39;20047;-61
2022/10/01 00:38:59;;;;;;;5.97;4.47;;;;;;;12.29;81.23;99974.94;3580389;40;20100;-61
2022/10/01 00:41:28;;;;;;;6.82;4.60;;;;;;;12.32;81.52;99948.59;3577725;40;20040;-61
2022/10/01 00:44:19;;;;;;;5.63;4.57;;;;;;;12.34;81.08;99971.84;3576881;40;20084;-60
2022/10/01 00:46:45;;;;;;;5.45;4.90;;;;;;;12.38;80.76;100005.69;3579949;40;20181;-61
2022/10/01 00:49:25;;;;;;;5.75;4.20;;;;;;;12.36;80.86;99988.75;3577974;40;20052;-61
2022/10/01 00:52:02;;;;;;;5.43;4.60;;;;;;;12.41;80.81;100005.41;3580249;40;20052;-61
2022/10/01 00:54:51;;;;;;;4.88;4.47;;;;;;;12.32;81.11;99997.09;3580785;40;20130;-60
2022/10/01 00:57:24;;;;;;;5.07;4.53;;;;;;;12.39;81.26;100024.41;3575585;40;20186;-60
2022/10/01 00:59:55;;;;;;;4.72;4.30;;;;;;;12.43;81.02;99988.16;3579030;39;20126;-60
2022/10/01 01:02:20;;;;;;;4.40;4.00;;;;;;;11.89;81.07;99892.00;3577989;40;20052;-65
2022/10/01 01:04:47;;;;;;;4.68;4.18;;;;;;;12.04;81.35;99949.16;3577666;40;20075;-66
2022/10/01 01:07:14;;;;;;;4.53;4.07;;;;;;;12.39;82.34;99991.22;3576081;40;20376;-65
2022/10/01 01:09:46;;;;;;;5.00;4.13;;;;;;;12.29;82.46;100004.59;3581264;40;20056;-64
2022/10/01 01:13:01;;;;;;;4.25;3.85;;;;;;;12.29;82.98;100004.59;3580958;39;20048;-64
2022/10/01 01:15:44;;;;;;;5.15;4.30;;;;;;;12.31;83.26;99978.38;3575183;40;20620;-66
2022/10/01 01:18:24;;;;;;;4.60;4.20;;;;;;;12.16;83.52;99963.47;3579352;40;20093;-65
2022/10/01 01:21:19;;;;;;;4.80;4.28;;;;;;;12.05;84.28;99940.09;3580276;40;20117;-64
2022/10/01 01:24:28;;;;;;;4.50;4.10;;;;;;;12.15;84.64;99924.91;3579253;40;20060;-64
2022/10/01 01:27:36;;;;;;;5.30;4.07;;;;;;;12.14;84.95;99879.22;3572883;40;20072;-64
2022/10/01 01:30:12;;;;;;;7.55;4.38;;;;;;;11.93;84.68;99833.41;3577155;40;20052;-64
2022/10/01 01:33:05;;;;;;;6.07;4.20;;;;;;;12.06;84.95;99859.16;3580997;40;20078;-63
2022/10/01 01:35:45;;;;;;;4.70;4.30;;;;;;;12.11;85.07;99856.06;3576950;40;20057;-65
2022/10/01 01:38:20;;;;;;;4.40;3.63;;;;;;;12.05;85.66;99832.34;3576890;40;20051;-64
2022/10/01 01:40:51;;;;;;;3.80;3.50;;;;;;;12.04;85.62;99787.53;3576080;40;20092;-65
2022/10/01 01:43:32;;;;;;;4.40;3.45;;;;;;;11.90;85.44;99791.41;3578591;40;20074;-66
2022/10/01 01:46:03;;;;;;;4.05;3.65;;;;;;;12.02;85.87;99881.09;3577749;40;20391;-64
2022/10/01 01:48:35;;;;;;;4.40;3.97;;;;;;;12.05;86.00;99880.81;3576519;40;20272;-66
2022/10/01 01:51:34;;;;;;;4.15;3.50;;;;;;;12.08;86.14;99875.19;3577711;40;20134;-63
2022/10/01 01:54:00;;;;;;;3.58;3.28;;;;;;;12.07;85.94;99873.47;3578789;40;20394;-64
2022/10/01 01:56:29;;;;;;;5.00;3.20;;;;;;;12.03;86.32;99872.88;3574166;40;20060;-62
2022/10/01 01:58:56;;;;;;;3.83;3.30;;;;;;;12.08;85.92;99875.19;3579388;40;20071;-64
2022/10/01 02:01:33;;;;;;;4.95;4.00;;;;;;;12.04;86.28;99868.34;3574554;40;20052;-64
2022/10/01 02:04:04;;;;;;;4.05;3.45;;;;;;;12.08;86.40;99881.47;3575936;40;20123;-65
2022/10/01 02:07:09;;;;;;;3.88;3.45;;;;;;;12.06;86.13;99906.81;3584064;39;20121;-64
2022/10/01 02:10:03;;;;;;;3.60;3.30;;;;;;;12.02;87.12;99855.03;3579432;40;20118;-64
2022/10/01 02:12:44;;;;;;;3.85;3.38;;;;;;;12.12;87.51;99881.19;3578597;40;20059;-63
2022/10/01 02:15:30;;;;;;;3.85;2.75;;;;;;;12.04;86.63;99879.13;3587351;39;20063;-63
2022/10/01 02:18:29;;;;;;;3.20;2.90;;;;;;;12.07;86.82;99882.41;3577384;40;22107;-64
2022/10/01 02:21:15;;;;;;;2.50;2.28;;;;;;;12.05;86.58;99879.00;3576636;40;20067;-63
2022/10/01 02:23:56;;;;;;;2.60;2.40;;;;;;;12.07;87.14;99878.88;3580583;40;20062;-63
2022/10/01 02:26:25;;;;;;;5.18;2.60;;;;;;;12.08;87.64;99862.59;3576847;40;20053;-64
2022/10/01 02:28:59;;;;;;;2.83;2.40;;;;;;;12.12;87.32;99860.50;3578919;40;20099;-63
2022/10/01 02:31:28;;;;;;;;;;;;;;;12.08;87.33;99861.72;3578482;40;20067;-63
2022/10/01 02:33:59;;;;;;;3.65;2.20;;;;;;;12.12;87.65;99868.56;3583971;40;19939;-63
2022/10/01 02:36:30;;;;;;;2.70;1.95;;;;;;;12.12;87.29;99855.09;3579750;40;20480;-64
2022/10/01 02:39:01;;;;;;;2.33;2.00;;;;;;;12.19;88.03;99837.44;3579768;40;20052;-63
2022/10/01 02:41:33;;;;;;;3.75;2.10;;;;;;;12.21;87.43;99835.47;3582292;39;20684;-66
2022/10/01 02:44:13;;;;;;;2.53;2.33;;;;;;;12.20;87.19;99839.13;3581243;40;20060;-65
2022/10/01 02:47:06;;;;;;;2.13;1.88;;;;;;;12.23;87.41;99828.09;3581733;40;20052;-63
2022/10/01 02:49:34;;;;;;;2.00;1.90;;;;;;;12.26;87.79;99838.63;3580185;40;20053;-64
2022/10/01 02:52:25;;;;;;;2.85;2.22;;;;;;;11.63;87.08;99738.84;3579767;40;20100;-64
2022/10/01 02:55:08;;;;;;;2.20;1.92;;;;;;;11.70;86.92;99736.47;3585089;40;20102;-64
2022/10/01 02:57:34;;;;;;;2.15;1.90;;;;;;;11.74;87.13;99743.34;3578598;40;20100;-64
2022/10/01 03:00:10;;;;;;;1.88;1.77;;;;;;;12.34;87.22;99839.81;3581244;40;20048;-64
2022/10/01 03:02:36;;;;;;;3.28;2.00;;;;;;;12.38;86.96;99838.56;3580153;40;20060;-65
2022/10/01 03:05:03;;;;;;;9.07;1.48;;;;;;;12.37;86.69;99840.41;3579459;40;20382;-65
2022/10/01 03:07:35;;;;;;;1.70;1.60;;;;;;;12.38;87.27;99844.81;3580926;40;20965;-65
2022/10/01 03:10:05;;;;;;;1.75;1.50;;;;;;;12.37;86.47;99840.41;3580213;40;20055;-64
2022/10/01 03:12:31;;;;;;;1.27;1.27;;;;;;;12.40;86.82;99836.59;3580044;39;20318;-64
2022/10/01 03:14:57;;;;;;;1.70;1.60;;;;;;;12.40;86.67;99825.81;3581189;40;20052;-65
2022/10/01 03:17:23;;;;;;;1.70;1.60;;;;;;;12.38;87.03;99827.78;3581093;40;20059;-65
2022/10/01 03:19:49;;;;;;;2.72;1.50;;;;;;;12.42;86.81;99821.16;3579869;40;20323;-65
2022/10/01 03:22:22;;;;;;;2.00;1.90;;;;;;;12.50;86.45;99837.53;3577392;40;20055;-65
2022/10/01 03:24:52;;;;;;;1.85;1.42;;;;;;;12.07;86.60;99760.34;3579420;40;20045;-65
2022/10/01 03:27:20;;;;;;;1.50;1.40;;;;;;;11.72;86.45;99694.16;3577460;40;20276;-65
2022/10/01 03:29:46;;;;;;;1.40;1.30;;;;;;;12.53;86.21;99827.34;3580620;40;20126;-65
2022/10/01 03:32:13;;;;;;;3.15;1.70;;;;;;;12.51;86.51;99810.44;3578473;39;20092;-65
2022/10/01 03:34:40;;;;;;;1.73;1.63;;;;;;;11.79;86.72;99703.41;3580986;40;20324;-65
2022/10/01 03:37:06;;;;;;;1.38;1.27;;;;;;;12.55;86.60;99829.88;3579711;40;20512;-65
2022/10/01 03:39:32;;;;;;;1.45;1.35;;;;;;;12.55;86.93;99824.50;3576955;40;20108;-64
2022/10/01 03:41:58;;;;;;;1.80;1.70;;;;;;;12.59;86.65;99817.00;3576657;40;20048;-64
2022/10/01 03:44:24;;;;;;;1.27;1.23;;;;;;;12.56;86.63;99810.03;3579130;40;20118;-64
2022/10/01 03:46:50;;;;;;;1.58;1.00;;;;;;;12.65;86.81;99824.56;3580083;40;20062;-64
2022/10/01 03:49:16;;;;;;;1.10;1.10;;;;;;;12.68;86.91;99825.13;3581788;40;20064;-65
2022/10/01 03:51:42;;;;;;;1.38;0.90;;;;;;;12.71;86.43;99830.25;3580576;40;20052;-65
2022/10/01 03:54:08;;;;;;;1.50;1.00;;;;;;;12.73;86.34;99831.00;3579633;40;20056;-65
2022/10/01 03:56:35;;;;;;;0.90;0.80;;;;;;;12.77;86.12;99824.34;3580268;40;20056;-65
2022/10/01 03:59:01;;;;;;;0.95;0.95;;;;;;;12.79;86.27;99837.72;3580827;40;20056;-66
2022/10/01 04:01:27;;;;;;;1.08;0.60;;;;;;;12.20;86.47;99739.44;3581983;39;20063;-65
2022/10/01 04:03:53;;;;;;;1.00;0.80;;;;;;;12.13;86.60;99719.41;3581589;40;20375;-65
2022/10/01 04:06:18;;;;;;;0.70;0.70;;;;;;;12.86;86.75;99821.84;3578246;40;21365;-66
2022/10/01 04:08:44;;;;;;;2.65;1.08;;;;;;;12.88;86.72;99841.44;3580072;40;20069;-65
2022/10/01 04:11:10;;;;;;;1.52;0.60;;;;;;;12.90;86.22;99831.38;3578421;40;20057;-65
2022/10/01 04:13:36;;;;;;;0.60;0.60;;;;;;;12.94;86.21;99841.78;3578970;40;20125;-66
2022/10/01 04:16:03;;;;;;;0.80;0.80;;;;;;;12.96;86.43;99844.31;3581916;40;20048;-66
2022/10/01 04:18:30;;;;;;;0.50;0.50;;;;;;;12.93;86.33;99847.28;3579915;40;20055;-66
2022/10/01 04:20:56;;;;;;;1.50;0.90;;;;;;;12.43;86.12;99758.16;3580085;40;20061;-66
2022/10/01 04:23:23;;;;;;;1.60;0.75;;;;;;;13.04;86.54;99840.97;3579366;40;20048;-66
2022/10/01 04:25:49;;;;;;;1.45;0.70;;;;;;;13.05;86.09;99859.69;3580942;40;20051;-66
2022/10/01 04:28:15;;;;;;;2.40;0.70;;;;;;;13.03;86.36;99845.47;3576162;40;20059;-66
2022/10/01 04:30:44;;;;;;;1.05;0.60;;;;;;;13.10;86.23;99848.50;3580480;40;20052;-66
2022/10/01 04:33:15;;;;;;;0.52;0.50;;;;;;;13.12;86.41;99852.75;3581773;40;20055;-66
2022/10/01 04:35:42;;;;;;;0.70;0.70;;;;;;;12.28;86.35;99710.00;3577483;40;20307;-66
2022/10/01 04:38:15;;;;;;;1.00;0.70;;;;;;;13.03;85.77;99842.78;3578836;40;20492;-66
2022/10/01 04:40:41;;;;;;;1.50;0.70;;;;;;;13.18;86.41;99865.72;3581144;40;20052;-66
2022/10/01 04:43:08;;;;;;;0.80;0.80;;;;;;;12.73;86.02;99785.16;3578610;40;20098;-66
2022/10/01 04:45:36;;;;;;;0.98;0.90;;;;;;;13.22;86.40;99861.78;3575013;40;21895;-67
2022/10/01 04:48:01;;;;;;;0.70;0.70;;;;;;;13.24;86.31;99870.59;3576401;40;20088;-66
2022/10/01 04:50:27;;;;;;;0.82;0.60;;;;;;;13.28;86.29;99871.19;3578645;40;20054;-67
2022/10/01 04:52:54;;;;;;;0.70;0.70;;;;;;;13.31;86.40;99867.38;3579738;40;20057;-66
2022/10/01 04:55:21;;;;;;;1.60;0.70;;;;;;;13.30;86.33;99860.28;3578747;40;20056;-66
2022/10/01 04:57:47;;;;;;;1.67;0.90;;;;;;;13.31;86.19;99878.16;3581748;40;20083;-67
2022/10/01 05:00:18;;;;;;;1.35;1.10;;;;;;;12.73;86.32;99771.66;3579702;40;20397;-67
2022/10/01 05:02:46;;;;;;;0.93;0.93;;;;;;;13.37;86.32;99869.53;3578779;40;20059;-67
2022/10/01 05:05:12;;;;;;;0.90;0.90;;;;;;;13.39;86.37;99864.88;3577637;40;20161;-67
2022/10/01 05:07:39;;;;;;;3.30;1.05;;;;;;;13.36;86.19;99867.84;3582491;40;20438;-67
2022/10/01 05:10:09;;;;;;;1.25;1.10;;;;;;;13.38;86.60;99865.81;3582769;40;20141;-69
2022/10/01 05:12:34;;;;;;;1.23;1.10;;;;;;;13.43;86.53;99879.78;3585370;40;20063;-67
2022/10/01 05:15:01;;;;;;;1.40;1.30;;;;;;;13.42;86.29;99878.09;3585455;40;20052;-67
2022/10/01 05:17:26;;;;;;;1.23;1.13;;;;;;;13.41;86.75;99882.59;3581254;40;20055;-68
2022/10/01 05:19:52;;;;;;;2.47;1.50;;;;;;;12.67;86.50;99757.88;3581967;40;20060;-66
2022/10/01 05:22:18;;;;;;;2.03;1.40;;;;;;;13.50;86.71;99891.75;3580375;40;20285;-67
2022/10/01 05:24:44;;;;;;;3.15;1.88;;;;;;;13.51;86.83;99898.88;3579027;40;20052;-67
2022/10/01 05:27:12;;;;;;;2.65;1.83;;;;;;;13.52;86.57;99915.91;3581719;39;20063;-67
2022/10/01 05:29:40;;;;;;;2.00;1.48;;;;;;;13.55;86.77;99923.75;3577397;40;20090;-66
2022/10/01 05:32:10;;;;;;;3.17;1.67;;;;;;;13.54;86.90;99925.59;3578574;40;20396;-66
2022/10/01 05:34:37;;;;;;;2.10;1.90;;;;;;;13.56;86.98;99920.03;3579834;40;20063;-66
2022/10/01 05:37:03;;;;;;;2.33;1.95;;;;;;;13.45;86.89;99915.59;3579181;40;20049;-67
2022/10/01 05:39:31;;;;;;;2.70;1.90;;;;;;;13.55;87.14;99921.91;3589983;39;20068;-67
2022/10/01 05:41:58;;;;;;;3.00;1.90;;;;;;;13.45;87.23;99915.59;3580830;40;20149;-66
2022/10/01 05:44:24;;;;;;;2.20;2.10;;;;;;;13.56;87.41;99926.28;3579536;40;20087;-67
2022/10/01 05:46:52;;;;;;;2.25;2.15;;;;;;;12.84;87.03;99802.22;3581132;39;20088;-67
2022/10/01 05:49:18;;;;;;;2.78;2.55;;;;;;;13.61;87.27;99926.75;3583462;40;20068;-66
2022/10/01 05:51:43;;;;;;;2.72;2.53;;;;;;;13.63;87.55;99930.16;3577277;40;20048;-66
2022/10/01 05:54:11;;;;;;;5.05;2.40;;;;;;;13.64;87.25;99950.78;3579193;40;20091;-66
2022/10/01 05:56:37;;;;;;;2.90;2.50;;;;;;;13.66;87.51;99937.97;3577489;40;20126;-66
2022/10/01 05:59:04;;;;;;;3.15;2.35;;;;;;;13.56;87.44;99918.19;3581537;40;20386;-66
2022/10/01 06:01:31;;;;;;;4.03;2.60;;;;;;;12.35;87.22;99714.88;3578401;40;20053;-66
2022/10/01 06:03:57;;;;;;;4.28;2.90;;;;;;;13.70;87.44;99941.25;3587956;39;20051;-64
2022/10/01 06:06:27;;;;;;;3.33;3.03;;;;;;;13.69;87.33;99945.81;3580275;40;20056;-64
2022/10/01 06:08:53;;;;;;;3.55;3.25;;;;;;;13.62;87.67;99927.59;3582744;40;20098;-64
2022/10/01 06:11:23;;;;;;;3.33;2.97;;;;;;;13.70;87.58;99949.38;3581479;40;20048;-64
2022/10/01 06:13:49;;;;;;;3.47;3.13;;;;;;;13.73;87.64;99950.94;3580552;40;20125;-64
2022/10/01 06:16:15;;;;;;;3.17;2.97;;;;;;;13.73;87.62;99950.94;3582199;40;20383;-64
2022/10/01 06:18:41;;;;;;;4.00;3.30;;;;;;;13.03;87.27;99829.28;3583827;40;20086;-65
2022/10/01 06:21:09;;;;;;;4.28;3.50;;;;;;;12.73;87.76;99795.94;3580627;40;20129;-63
2022/10/01 06:23:35;;;;;;;3.60;3.40;;;;;;;13.67;87.67;99957.78;3579821;40;20171;-64
2022/10/01 06:26:07;;;;;;;3.97;3.63;;;;;;;13.62;87.81;99955.47;3582333;39;20060;-65
2022/10/01 06:28:33;;;;;;;6.93;4.03;;;;;;;13.64;87.91;99952.63;3582006;40;20063;-64
2022/10/01 06:31:03;;;;;;;4.60;4.20;;;;;;;13.67;88.43;99961.31;3583456;40;20114;-65
2022/10/01 06:33:28;;;;;;;6.75;4.15;;;;;;;13.71;88.88;99959.19;3589528;39;20067;-65
2022/10/01 06:35:54;;;;;;;9.43;4.50;;;;;;;13.70;88.43;99958.34;3581018;40;20056;-64
2022/10/01 06:38:22;;;;;;;4.93;4.45;;;;;;;13.75;88.77;99970.59;3582006;40;20300;-64
2022/10/01 06:40:57;;;;;;;7.40;4.75;;;;;;;13.80;89.00;99968.34;3579067;40;20056;-65
2022/10/01 06:43:27;;;;;;;5.00;4.60;;;;;;;13.84;88.98;99965.22;3582755;40;20603;-65
2022/10/01 06:45:54;;;;;;;5.60;5.00;;;;;;;13.89;88.96;99971.06;3582497;40;20051;-65
2022/10/01 06:48:21;;;;;;;5.95;5.25;;;;;;;13.96;88.75;99968.66;3588727;39;20055;-65
2022/10/01 06:50:50;;;;;;;6.57;4.97;;;;;;;14.03;89.02;99975.22;3583361;40;20060;-64
2022/10/01 06:53:17;;;;;;;6.35;5.18;;;;;;;14.07;88.40;99979.34;3580140;40;20053;-65
2022/10/01 06:55:43;;;;;;;5.78;5.28;;;;;;;14.18;88.87;99989.22;3583116;40;20100;-65
2022/10/01 06:58:15;;;;;;;7.40;5.10;;;;;;;14.23;88.34;99988.78;3580773;40;20045;-65
2022/10/01 07:00:42;;;;;;;6.65;5.03;;;;;;;14.31;87.97;99999.78;3580705;40;20062;-65
2022/10/01 07:03:14;;;;;;;7.32;5.10;;;;;;;14.28;87.89;99979.28;3580795;40;20335;-65
2022/10/01 07:05:40;;;;;;;10.15;5.35;;;;;;;14.46;87.88;99989.38;3580885;40;20060;-65
2022/10/01 07:08:07;;;;;;;5.57;5.07;;;;;;;14.48;87.75;99990.97;3583367;40;21291;-65
2022/10/01 07:10:34;;;;;;;5.82;5.30;;;;;;;14.04;87.49;99906.66;3582384;40;20378;-65
2022/10/01 07:13:19;;;;;;;6.50;5.53;;;;;;;14.58;87.08;99999.97;3583498;40;22009;-65
2022/10/01 07:15:45;;;;;;;6.25;5.53;;;;;;;14.62;87.28;100006.81;3580915;40;20060;-65
2022/10/01 07:18:12;;;;;;;6.38;5.78;;;;;;;14.66;87.25;99993.00;3580283;40;20067;-65
2022/10/01 07:20:39;;;;;;;6.40;5.80;;;;;;;14.72;87.70;100011.38;3580358;39;20134;-65
2022/10/01 07:23:10;;;;;;;7.53;5.80;;;;;;;14.75;87.00;100000.28;3581255;40;20060;-65
2022/10/01 07:25:38;;;;;;;6.63;5.32;;;;;;;14.78;86.89;99998.16;3583245;40;20075;-65
2022/10/01 07:28:06;;;;;;;6.80;5.68;;;;;;;14.11;86.35;99874.53;3579326;40;20106;-65
2022/10/01 07:30:33;;;;;;;6.97;5.18;;;;;;;14.91;86.50;100007.84;3577158;40;20052;-65
2022/10/01 07:32:58;;;;;;;7.70;5.43;;;;;;;14.91;86.17;100019.50;3580529;39;20493;-66
2022/10/01 07:35:25;;;;;;;7.53;5.97;;;;;;;14.90;86.41;100025.91;3581834;40;20072;-66
2022/10/01 07:37:52;;;;;;;6.43;5.80;;;;;;;14.85;86.50;100041.72;3587944;39;20092;-65
2022/10/01 07:40:18;;;;;;;14.45;6.93;;;;;;;14.76;87.42;100031.75;3580141;40;20075;-64
2022/10/01 07:42:55;;;;;;;10.57;6.80;;;;;;;14.81;87.74;100046.56;3580326;40;20083;-66
2022/10/01 07:45:25;;;;;;;9.32;6.45;;;;;;;13.99;87.93;99914.34;3579087;40;20407;-63
2022/10/01 07:47:57;;;;;;;10.38;7.20;;;;;;;14.81;88.44;100045.69;3576663;40;20133;-63
2022/10/01 07:50:26;;;;;;;10.90;7.50;;;;;;;14.23;88.54;99954.50;3581190;40;20060;-63
2022/10/01 07:52:57;;;;;;;9.95;6.75;;;;;;;14.83;89.07;100059.94;3579787;40;20300;-63
2022/10/01 07:55:27;;;;;;;9.70;6.80;;;;;;;14.84;89.09;100067.06;3577852;40;20107;-63
2022/10/01 07:57:56;;;;;;;8.23;6.90;;;;;;;14.20;89.02;99964.72;3582001;40;20314;-63
2022/10/01 08:00:26;;;;;;;9.43;7.30;;;;;;;14.86;89.41;100078.59;3580378;40;20068;-63
2022/10/01 08:02:55;;;;;;;13.02;7.93;;;;;;;14.32;89.16;99985.25;3577141;40;20376;-63
2022/10/01 08:05:26;;;;;;;7.88;7.07;;;;;;;14.90;89.39;100085.44;3579494;40;20060;-64
2022/10/01 08:07:52;;;;;;;8.48;7.18;;;;;;;14.85;89.46;100076.91;3576289;40;20663;-63
2022/10/01 08:10:21;;;;;;;7.93;7.13;;;;;;;14.95;89.07;100088.59;3578857;40;20067;-63
2022/10/01 08:12:47;;;;;;;9.23;7.40;;;;;;;14.99;89.38;100086.44;3578523;40;20070;-64
2022/10/01 08:15:16;;;;;;;11.68;7.07;;;;;;;15.01;88.90;100090.72;3579108;39;20279;-63
2022/10/01 08:17:43;;;;;;;9.10;6.50;;;;;;;15.08;89.65;100091.00;3581090;40;20056;-63
2022/10/01 08:20:12;;;;;;;7.65;6.03;;;;;;;15.12;89.07;100103.25;3579037;40;20059;-64
2022/10/01 08:22:39;;;;;;;9.15;6.00;;;;;;;14.99;89.10;100076.47;3580756;40;20432;-64
2022/10/01 08:25:05;;;;;;;8.63;5.50;;;;;;;15.23;88.91;100107.69;3578983;39;20118;-64
2022/10/01 08:27:31;;;;;;;5.35;4.75;;;;;;;15.24;88.41;100103.97;3579982;40;20049;-64
2022/10/01 08:29:57;;;;;;;7.32;4.97;;;;;;;15.28;88.19;100105.41;3578001;40;20075;-64
2022/10/01 08:32:24;;;;;;;8.38;4.72;;;;;;;15.27;88.62;100107.25;3579661;39;20071;-64
2022/10/01 08:34:51;;;;;;;7.22;4.57;;;;;;;14.61;87.94;99985.31;3578664;40;20048;-64
2022/10/01 08:37:17;;;;;;;4.70;3.78;;;;;;;14.39;87.10;99953.94;3580029;40;20080;-63
2022/10/01 08:39:43;;;;;;;5.78;3.63;;;;;;;15.39;86.84;100116.09;3577976;40;20064;-63
2022/10/01 08:42:42;;;;;;;6.05;3.55;;;;;;;15.44;86.90;100130.03;3575705;40;20056;-63
2022/10/01 08:45:24;;;;;;;5.57;3.30;;;;;;;15.47;86.51;100124.34;3578926;40;20041;-63
2022/10/01 08:48:15;;;;;;;4.93;3.10;;;;;;;15.51;86.72;100124.94;3580826;40;20068;-64
2022/10/01 08:51:04;;;;;;;4.78;3.22;;;;;;;15.88;87.51;100138.56;3576794;40;20045;-64
2022/10/01 08:53:43;;;;;;;4.15;2.67;;;;;;;15.99;84.70;100129.44;3579226;40;20052;-64
2022/10/01 08:56:30;;;;;;;2.88;2.35;;;;;;;15.97;83.62;100132.28;3576818;40;20071;-64
2022/10/01 08:59:03;;;;;;;7.50;2.30;;;;;;;15.96;83.95;100136.00;3574214;40;20059;-64
2022/10/01 09:01:30;;;;;;;3.85;2.20;;;;;;;15.93;83.51;100140.88;3576923;40;20071;-64
2022/10/01 09:03:58;;;;;;;5.03;2.50;;;;;;;15.94;83.83;100138.00;3576357;40;20307;-64
2022/10/01 09:06:27;;;;;;;7.35;2.40;;;;;;;16.01;83.97;100144.53;3585053;40;20121;-64
2022/10/01 09:09:19;;;;;;;5.72;2.55;;;;;;;16.12;84.52;100150.81;3582234;39;20052;-65
2022/10/01 09:12:11;;;;;;;7.50;2.80;;;;;;;16.21;84.18;100153.50;3577870;40;20398;-65
2022/10/01 09:14:48;;;;;;;7.40;2.90;;;;;;;16.39;84.17;100152.69;3578619;40;20145;-65
2022/10/01 09:17:43;;;;;;;8.10;2.40;;;;;;;16.57;83.48;100159.06;3577632;40;20060;-65
2022/10/01 09:20:45;;;;;;;7.90;2.97;;;;;;;16.84;82.35;100158.25;3578930;40;20415;-66
2022/10/01 09:23:37;;;;;;;13.38;2.90;;;;;;;16.88;80.62;100164.22;3577562;40;20111;-65
2022/10/01 09:26:11;;;;;;;10.75;3.17;;;;;;;16.95;80.84;100176.19;3578043;40;20064;-65
2022/10/01 09:28:40;;;;;;;13.23;3.20;;;;;;;17.14;80.80;100183.34;3577897;40;20072;-65
2022/10/01 09:31:28;;;;;;;11.18;3.17;;;;;;;17.38;80.23;100174.59;3579270;40;20080;-66
2022/10/01 09:34:11;;;;;;;12.63;3.20;;;;;;;17.57;78.40;100184.44;3573968;40;20118;-66
2022/10/01 09:36:53;;;;;;;9.15;2.85;;;;;;;17.79;78.37;100178.59;3579040;40;20375;-66
2022/10/01 09:39:57;;;;;;;13.05;2.70;;;;;;;18.04;76.77;100185.03;3579573;40;20068;-66
2022/10/01 09:42:28;;;;;;;10.07;3.10;;;;;;;18.23;73.95;100189.41;3577174;40;20057;-66
2022/10/01 09:44:56;;;;;;;9.98;2.90;;;;;;;18.16;72.96;100193.78;3581179;40;20059;-66
2022/10/01 09:47:27;;;;;;;12.57;2.70;;;;;;;17.54;71.55;100127.72;3577238;40;20063;-66
2022/10/01 09:49:52;;;;;;;11.57;2.45;;;;;;;17.72;70.30;100190.19;3578156;40;20099;-66
2022/10/01 09:52:28;;;;;;;13.02;2.55;;;;;;;17.53;71.84;100193.91;3577233;40;20056;-66
2022/10/01 09:55:35;;;;;;;12.07;2.80;;;;;;;17.53;73.63;100183.06;3577828;39;20070;-66
2022/10/01 09:58:12;;;;;;;9.13;2.33;;;;;;;17.08;73.10;100078.03;3576935;40;20052;-66
2022/10/01 10:00:39;;;;;;;10.82;2.45;;;;;;;18.09;73.02;100192.72;3578873;40;20064;-66
2022/10/01 10:03:06;;;;;;;12.10;2.63;;;;;;;18.24;70.79;100199.31;3576519;40;20085;-66
2022/10/01 10:05:47;;;;;;;9.80;2.28;;;;;;;18.56;69.83;100200.53;3578534;40;20055;-66
2022/10/01 10:08:44;;;;;;;7.03;2.00;;;;;;;18.54;69.24;100208.81;3576810;40;20064;-66
2022/10/01 10:11:21;;;;;;;11.38;3.03;;;;;;;18.36;69.25;100212.63;3564664;40;20103;-65
2022/10/01 10:13:55;;;;;;;13.50;3.67;;;;;;;16.62;71.98;100006.66;3576977;40;20139;-65
2022/10/01 10:16:29;;;;;;;13.52;3.45;;;;;;;17.47;74.50;100214.41;3578484;40;20064;-64
2022/10/01 10:19:01;;;;;;;12.10;2.28;;;;;;;17.20;77.36;100220.75;3582330;40;20064;-63
2022/10/01 10:21:33;;;;;;;8.82;2.40;;;;;;;17.26;80.10;100233.75;3577894;40;20390;-65
2022/10/01 10:24:04;;;;;;;9.70;2.35;;;;;;;17.36;80.03;100228.25;3578517;40;20068;-64
2022/10/01 10:26:37;;;;;;;11.93;3.05;;;;;;;17.58;79.54;100237.81;3582629;40;20118;-65
2022/10/01 10:29:07;;;;;;;10.40;2.03;;;;;;;17.89;78.85;100240.16;3580304;39;20097;-64
2022/10/01 10:31:45;;;;;;;10.52;2.47;;;;;;;18.22;76.55;100235.84;3575763;40;20641;-65
2022/10/01 10:34:24;;;;;;;7.55;2.00;;;;;;;18.53;76.22;100242.53;3581820;40;20075;-65
2022/10/01 10:36:57;;;;;;;9.52;2.63;;;;;;;18.82;73.39;100248.66;3575584;40;20291;-65
2022/10/01 10:39:33;;;;;;;12.05;2.60;;;;;;;18.90;72.93;100243.25;3575909;40;20064;-66
2022/10/01 10:42:02;;;;;;;15.45;2.92;;;;;;;18.86;72.07;100165.63;3577033;40;20093;-66
2022/10/01 10:44:35;;;;;;;11.85;2.55;;;;;;;19.60;69.62;100257.47;3579963;40;20048;-66
2022/10/01 10:47:10;;;;;;;9.82;2.45;;;;;;;19.83;68.80;100265.88;3575708;40;20338;-65
2022/10/01 10:50:04;;;;;;;9.43;1.98;;;;;;;20.04;65.74;100265.38;3580382;40;20048;-66
2022/10/01 10:52:35;;;;;;;8.82;2.08;;;;;;;20.28;66.71;100275.44;3580396;40;20123;-66
2022/10/01 10:55:20;;;;;;;13.50;2.75;;;;;;;20.71;66.71;100291.63;3578007;40;20456;-65
2022/10/01 10:57:46;;;;;;;12.23;2.47;;;;;;;21.01;64.76;100271.75;3578945;40;20067;-65
2022/10/01 11:00:16;;;;;;;9.05;2.25;;;;;;;21.50;63.97;100287.97;3578434;39;20063;-64
2022/10/01 11:02:58;;;;;;;8.00;2.22;;;;;;;21.73;61.70;100292.63;3583168;40;20055;-64
2022/10/01 11:05:30;;;;;;;13.02;2.92;;;;;;;21.77;58.00;100291.22;3577844;40;20068;-65
2022/10/01 11:08:11;;;;;;;9.25;2.45;;;;;;;21.74;57.42;100295.19;3581813;40;20052;-66
2022/10/01 11:11:21;;;;;;;8.93;2.00;;;;;;;21.42;58.04;100303.56;3580414;40;20322;-64
2022/10/01 11:14:35;;;;;;;8.10;1.85;;;;;;;21.18;58.17;100316.25;3575980;40;20059;-66
2022/10/01 11:17:26;;;;;;;9.10;2.22;;;;;;;21.30;57.86;100316.75;3580408;40;20088;-67
2022/10/01 11:19:57;;;;;;;7.90;2.53;;;;;;;21.38;57.05;100327.69;3579429;40;20414;-67
2022/10/01 11:23:09;;;;;;;10.63;2.45;;;;;;;20.93;57.17;100325.56;3580087;40;20067;-66
2022/10/01 11:25:52;;;;;;;8.82;2.25;;;;;;;20.68;56.29;100314.72;3581014;40;20041;-67
2022/10/01 11:28:38;;;;;;;8.45;2.40;;;;;;;20.38;56.59;100335.34;3581252;40;20050;-67
2022/10/01 11:31:52;;;;;;;7.72;2.35;;;;;;;20.68;56.43;100341.13;3579738;40;20309;-67
2022/10/01 11:34:49;;;;;;;;;;;;;;;21.15;57.14;100338.47;3580421;40;20052;-67
2022/10/01 11:37:42;;;;;;;10.82;2.97;;;;;;;21.02;56.58;100343.66;3572902;40;19940;-66
2022/10/01 11:40:27;;;;;;;10.52;2.30;;;;;;;21.34;55.03;100350.91;3580429;40;20056;-67
2022/10/01 11:43:09;;;;;;;11.32;2.63;;;;;;;21.71;54.63;100349.41;3579898;40;20044;-66
2022/10/01 11:45:45;;;;;;;8.93;2.20;;;;;;;22.00;52.08;100341.34;3580975;40;20138;-65
2022/10/01 11:48:28;;;;;;;9.65;2.35;;;;;;;21.65;51.26;100257.13;3579420;40;20137;-67
2022/10/01 11:51:07;;;;;;;11.80;2.03;;;;;;;22.35;51.09;100350.03;3580982;40;20052;-66
2022/10/01 11:53:55;;;;;;;10.38;2.50;;;;;;;22.58;51.68;100341.81;3580624;40;20064;-66
2022/10/01 11:59:36;;;;;;;11.75;2.40;;;;;;;22.78;50.21;100355.00;3580659;40;20047;-67
2022/10/01 12:02:29;;;;;;;11.02;2.47;;;;;;;21.41;51.86;100250.78;3580301;40;20313;-65